createdAt,value
2022-11-01T00:26:46.539Z,14.69
2022-11-01T00:55:01.466Z,14.73
2022-11-01T01:23:52.843Z,14.59
2022-11-01T01:52:55.976Z,14.77
2022-11-01T02:21:46.060Z,14.46
2022-11-01T02:50:36.884Z,14.21
2022-11-01T03:19:01.251Z,14.39
2022-11-01T03:47:15.378Z,15.21
2022-11-01T04:15:35.826Z,15.27
2022-11-01T04:43:51.272Z,15.13
2022-11-01T05:12:09.675Z,15.13
2022-11-01T05:40:23.083Z,15.43
2022-11-01T06:08:44.633Z,15.71
2022-11-01T06:37:03.493Z,15.75
2022-11-01T07:05:21.080Z,14.93
2022-11-01T07:33:41.532Z,14.98
2022-11-01T08:02:08.331Z,15.52
2022-11-01T08:30:21.495Z,16.46
2022-11-01T08:58:52.634Z,17.21
2022-11-01T09:27:10.205Z,16.99
2022-11-01T09:55:29.062Z,16.91
2022-11-01T10:23:54.371Z,17.41
2022-11-01T10:52:10.834Z,17.37
2022-11-01T11:20:41.951Z,18.85
2022-11-01T11:49:11.967Z,17.28
2022-11-01T12:17:30.577Z,17.11
2022-11-01T12:45:42.119Z,15.74
2022-11-01T13:14:07.142Z,16.04
2022-11-01T13:42:32.517Z,16.4
2022-11-01T14:11:05.332Z,17.08
2022-11-01T14:39:30.401Z,17.55
2022-11-01T15:08:31.555Z,17.37
2022-11-01T15:36:49.099Z,16.87
2022-11-01T16:05:10.584Z,16.7
2022-11-01T16:33:27.729Z,16.24
2022-11-01T17:02:30.063Z,15.5
2022-11-01T17:31:10.463Z,14.73
2022-11-01T18:00:15.433Z,14.11
2022-11-01T18:29:08.748Z,13.94
2022-11-01T18:57:49.901Z,13.38
2022-11-01T19:26:37.764Z,12.69
2022-11-01T19:55:32.183Z,11.77
2022-11-01T20:24:34.574Z,11.69
2022-11-01T20:53:30.377Z,11.35
2022-11-01T21:21:59.458Z,11.03
2022-11-01T21:50:52.162Z,10.48
2022-11-01T22:19:57.710Z,10.71
2022-11-01T22:48:49.500Z,10.61
2022-11-01T23:17:37.159Z,10.42
2022-11-01T23:46:29.986Z,10.09
